Thursday, January 17, 2019, 9:06 PM EST
Back to Local

KIPT, Williamsport-lycoming County

Location: Montoursville, PA, United States Lat: 41.25
Local Time: 9:06 PM EST ( 2:06 GMT) Lon: -76.917
Time Zone: US/Eastern Elev: 528 ft

Show me the last for .
Show Coded

Time T Td Feel RH Dir Speed Gust Alt SLP Vis Weather Sky Remarks
2019-01-17 20:54 27 21 14 77 90° 9 18 30.17 30.19 4 -SN BKN015 OVC021 1-hr Precip Total: Trace
2019-01-17 20:37 27 21 19 77 90° 7 - 30.17 - 4 -SN BKN016 OVC021 1-hr Precip Total: Trace
2019-01-17 20:06 27 21 19 77 70° 7 - 30.19 - 9 -SN OVC014 1-hr Precip Total: Trace
2019-01-17 19:54 27 21 18 77 90° 9 - 30.19 30.21 9 -SN BKN015 OVC024 1-hr Precip Total: Trace
2019-01-17 19:31 27 21 20 77 Variable 6 - 30.19 - 8 -SN BKN015 BKN020 OVC055 1-hr Precip Total: Trace
2019-01-17 18:54 28 17 23 62 Variable 5 - 30.20 30.22 6 -SN BKN033 OVC055 1-hr Precip Total: Trace
6-hr Precip Total (7pm): 0.00"
6-hr Min Temp (7pm): 27.0°F
6-hr Max Temp (7pm): 30.9°F
2019-01-17 17:54 29 12 22 48 80° 7 - 30.19 30.21 10 OVC035 None
2019-01-17 16:54 29 12 23 48 140° 6 - 30.21 30.23 10 OVC035 None
2019-01-17 15:54 29 11 24 46 Variable 5 - 30.23 30.25 10 OVC040 None
2019-01-17 14:54 31 11 24 42 100° 7 - 30.23 30.25 10 CLR None
2019-01-17 13:54 29 11 25 46 120° 3 - 30.25 30.27 10 CLR None
2019-01-17 12:54 28 11 24 48 Variable 3 - 30.29 30.31 10 CLR 6-hr Min Temp (1pm): 19.9°F
6-hr Max Temp (1pm): 28.0°F
2019-01-17 11:54 27 10 20 48 130° 6 - 30.33 30.35 10 CLR None
2019-01-17 10:54 26 10 21 50 100° 5 - 30.38 30.40 10 CLR None
2019-01-17 09:54 23 11 17 59 120° 5 - 30.38 30.40 10 CLR None
2019-01-17 08:54 22 11 16 62 80° 5 - 30.38 30.40 10 CLR None
2019-01-17 07:54 21 11 - 64 - Calm - 30.37 30.39 10 CLR None
2019-01-17 06:54 20 12 - 70 - Calm - 30.36 30.38 10 CLR 6-hr Min Temp (7am): 19.0°F
6-hr Max Temp (7am): 25.0°F
2019-01-17 05:54 20 11 15 67 290° 3 - 30.35 30.37 10 CLR None
2019-01-17 04:54 20 11 15 67 320° 3 - 30.34 30.36 10 CLR None
2019-01-17 03:54 21 11 13 64 320° 6 - 30.33 30.35 10 CLR None
2019-01-17 02:54 22 12 17 65 350° 3 - 30.33 30.35 10 CLR None
2019-01-17 01:54 23 10 17 56 300° 5 - 30.31 30.33 10 CLR None
2019-01-17 00:54 25 12 17 57 340° 7 - 30.30 30.31 10 CLR 6-hr Min Temp (1am): 24.1°F
6-hr Max Temp (1am): 35.1°F
2019-01-16 23:54 26 13 19 56 290° 6 - 30.29 30.31 10 SCT038 24-hr Min Temp (12am): 26.1°F
24-hr Max Temp (12am): 37.0°F
2019-01-16 22:54 28 12 17 50 310° 14 - 30.28 30.29 10 CLR None
2019-01-16 21:54 30 13 17 48 320° 14 21 30.24 30.26 10 CLR None

Support USWX by starting your Amazon purchase here.